createdAt,value
2023-05-18T00:01:23.355Z,2.45
2023-05-18T00:03:49.907Z,2.97
2023-05-18T00:06:16.416Z,3.35
2023-05-18T00:08:42.769Z,2.50
2023-05-18T00:11:09.278Z,3.47
2023-05-18T00:13:35.709Z,2.88
2023-05-18T00:16:02.145Z,2.72
2023-05-18T00:18:28.690Z,2.22
2023-05-18T00:21:04.433Z,2.40
2023-05-18T00:23:31.307Z,2.13
2023-05-18T00:25:58.221Z,2.30
2023-05-18T00:28:26.030Z,2.42
2023-05-18T00:30:53.442Z,2.55
2023-05-18T00:33:19.861Z,2.85
2023-05-18T00:35:46.330Z,5.15
2023-05-18T00:38:12.851Z,2.30
2023-05-18T00:40:39.753Z,3.47
2023-05-18T00:43:06.101Z,1.85
2023-05-18T00:45:32.965Z,2.20
2023-05-18T00:47:59.750Z,2.35
2023-05-18T00:50:26.251Z,1.85
2023-05-18T00:52:52.667Z,3.38
2023-05-18T00:55:19.492Z,2.22
2023-05-18T00:57:48.233Z,2.00
2023-05-18T01:00:16.145Z,1.90
2023-05-18T01:02:43.074Z,1.85
2023-05-18T01:05:11.072Z,2.15
2023-05-18T01:07:42.615Z,1.98
2023-05-18T01:10:10.260Z,2.05
2023-05-18T01:12:40.443Z,1.80
2023-05-18T01:15:18.063Z,1.88
2023-05-18T01:18:05.286Z,2.67
2023-05-18T01:20:37.839Z,2.40
2023-05-18T01:23:11.855Z,2.25
2023-05-18T01:25:47.156Z,1.80
2023-05-18T01:30:41.209Z,2.20
2023-05-18T01:33:11.553Z,1.95
2023-05-18T01:35:38.536Z,2.50
2023-05-18T01:38:04.909Z,2.33
2023-05-18T01:40:33.354Z,1.80
2023-05-18T01:43:03.101Z,2.00
2023-05-18T01:45:30.448Z,2.10
2023-05-18T01:47:58.889Z,1.73
2023-05-18T01:50:31.920Z,2.00
2023-05-18T01:53:00.673Z,1.80
2023-05-18T01:55:29.867Z,2.30
2023-05-18T01:57:57.309Z,2.05
2023-05-18T02:00:24.249Z,2.78
2023-05-18T02:02:50.766Z,2.15
2023-05-18T02:05:17.269Z,1.70
2023-05-18T02:07:44.183Z,2.35
2023-05-18T02:10:10.948Z,2.13
2023-05-18T02:12:37.280Z,2.38
2023-05-18T02:15:05.619Z,2.08
2023-05-18T02:17:32.839Z,2.35
2023-05-18T02:19:59.217Z,2.13
2023-05-18T02:22:25.953Z,2.05
2023-05-18T02:24:53.853Z,2.03
2023-05-18T02:27:20.235Z,2.05
2023-05-18T02:29:46.581Z,2.37
2023-05-18T02:32:12.966Z,2.38
2023-05-18T02:34:42.098Z,2.63
2023-05-18T02:37:08.616Z,2.20
2023-05-18T02:39:34.947Z,2.63
2023-05-18T02:42:01.688Z,2.63
2023-05-18T02:44:28.033Z,3.03
2023-05-18T02:46:54.394Z,3.25
2023-05-18T02:49:20.718Z,2.05
2023-05-18T02:51:47.065Z,2.50
2023-05-18T02:54:13.427Z,2.33
2023-05-18T02:56:41.492Z,2.33
2023-05-18T02:59:08.801Z,1.67
2023-05-18T03:01:37.218Z,2.63
2023-05-18T03:04:03.662Z,2.67
2023-05-18T03:06:30.463Z,2.85
2023-05-18T03:08:57.042Z,2.77
2023-05-18T03:11:23.966Z,2.00
2023-05-18T03:13:50.413Z,2.33
2023-05-18T03:16:16.823Z,2.27
2023-05-18T03:18:43.254Z,1.97
2023-05-18T03:21:10.068Z,2.08
2023-05-18T03:23:36.414Z,3.53
2023-05-18T03:26:04.013Z,2.57
2023-05-18T03:28:30.814Z,2.03
2023-05-18T03:30:57.746Z,2.43
2023-05-18T03:33:24.248Z,3.00
2023-05-18T03:35:52.250Z,2.53
2023-05-18T03:38:18.762Z,2.10
2023-05-18T03:40:45.356Z,2.40
2023-05-18T03:43:11.707Z,2.10
2023-05-18T03:45:38.066Z,2.60
2023-05-18T03:48:04.552Z,1.90
2023-05-18T03:50:31.108Z,2.93
2023-05-18T03:52:57.617Z,1.97
2023-05-18T03:55:24.054Z,2.50
2023-05-18T03:57:50.680Z,2.00
2023-05-18T04:00:17.190Z,3.10
2023-05-18T04:02:43.690Z,4.10
2023-05-18T04:05:10.116Z,2.87
2023-05-18T04:07:43.723Z,2.30
2023-05-18T04:10:11.809Z,1.80
2023-05-18T04:12:38.518Z,2.67
2023-05-18T04:15:05.080Z,2.63
2023-05-18T04:17:31.555Z,2.77
2023-05-18T04:19:57.915Z,2.37
2023-05-18T04:22:24.254Z,2.40
2023-05-18T04:24:55.076Z,2.37
2023-05-18T04:27:22.644Z,2.03
2023-05-18T04:29:49.238Z,2.60
2023-05-18T04:32:18.442Z,2.37
2023-05-18T04:34:49.464Z,3.10
2023-05-18T04:37:17.974Z,2.33
2023-05-18T04:39:44.394Z,2.17
2023-05-18T04:42:10.739Z,2.30
2023-05-18T04:44:38.534Z,2.50
2023-05-18T04:47:04.960Z,2.10
2023-05-18T04:49:33.102Z,2.53
2023-05-18T04:51:59.925Z,2.60
2023-05-18T04:54:28.179Z,2.77
2023-05-18T04:56:54.539Z,2.50
2023-05-18T04:59:20.919Z,3.10
2023-05-18T05:01:47.384Z,2.53
2023-05-18T05:04:14.167Z,2.90
2023-05-18T05:06:40.598Z,2.53
2023-05-18T05:09:07.256Z,2.43
2023-05-18T05:11:33.731Z,2.40
2023-05-18T05:14:01.178Z,2.80
2023-05-18T05:16:27.611Z,2.50
2023-05-18T05:18:54.050Z,2.93
2023-05-18T05:21:20.427Z,2.87
2023-05-18T05:23:46.780Z,2.53
2023-05-18T05:26:13.149Z,3.27
2023-05-18T05:28:39.522Z,2.60
2023-05-18T05:31:06.092Z,3.83
2023-05-18T05:33:33.179Z,3.87
2023-05-18T05:35:59.595Z,3.20
2023-05-18T05:38:26.263Z,3.20
2023-05-18T05:40:52.620Z,3.10
2023-05-18T05:43:18.953Z,3.23
2023-05-18T05:45:45.624Z,3.80
2023-05-18T05:48:13.751Z,4.55
2023-05-18T05:50:40.470Z,3.97
2023-05-18T05:53:07.059Z,4.32
2023-05-18T05:55:33.626Z,3.85
2023-05-18T05:58:00.054Z,3.85
2023-05-18T06:00:28.769Z,4.40
2023-05-18T06:02:55.134Z,4.32
2023-05-18T06:05:21.522Z,4.57
2023-05-18T06:07:48.104Z,3.92
2023-05-18T06:10:14.473Z,3.88
2023-05-18T06:12:41.262Z,3.05
2023-05-18T06:15:08.061Z,3.78
2023-05-18T06:17:35.067Z,3.60
2023-05-18T06:20:01.436Z,3.22
2023-05-18T06:22:27.841Z,2.95
2023-05-18T06:24:54.180Z,4.03
2023-05-18T06:27:20.616Z,4.03
2023-05-18T06:29:47.161Z,3.20
2023-05-18T06:32:13.713Z,3.40
2023-05-18T06:34:40.106Z,4.32
2023-05-18T06:37:06.637Z,3.38
2023-05-18T06:39:32.986Z,4.78
2023-05-18T06:41:59.346Z,4.10
2023-05-18T06:44:25.718Z,3.80
2023-05-18T06:46:52.379Z,4.22
2023-05-18T06:49:19.116Z,3.70
2023-05-18T06:51:45.930Z,4.55
2023-05-18T06:54:12.973Z,4.47
2023-05-18T06:56:39.334Z,4.15
2023-05-18T06:59:05.799Z,4.32
2023-05-18T07:01:32.213Z,4.43
2023-05-18T07:03:58.651Z,3.92
2023-05-18T07:06:25.297Z,4.35
2023-05-18T07:08:51.650Z,4.40
2023-05-18T07:11:17.994Z,3.60
2023-05-18T07:13:44.391Z,4.30
2023-05-18T07:16:11.231Z,4.05
2023-05-18T07:18:38.267Z,3.92
2023-05-18T07:21:04.856Z,6.03
2023-05-18T07:23:31.194Z,3.88
2023-05-18T07:25:57.640Z,3.10
2023-05-18T07:28:24.056Z,4.72
2023-05-18T07:30:50.548Z,5.90
2023-05-18T07:33:16.919Z,4.28
2023-05-18T07:35:43.279Z,4.25
2023-05-18T07:38:09.611Z,4.10
2023-05-18T07:40:36.127Z,4.43
2023-05-18T07:43:02.481Z,4.38
2023-05-18T07:45:29.586Z,3.38
2023-05-18T07:47:57.651Z,3.88
2023-05-18T07:50:24.180Z,4.93
2023-05-18T07:52:50.654Z,3.78
2023-05-18T07:55:17.471Z,4.82
2023-05-18T07:57:43.825Z,4.15
2023-05-18T08:00:10.451Z,4.57
2023-05-18T08:02:37.774Z,4.85
2023-05-18T08:05:04.511Z,5.80
2023-05-18T08:07:31.557Z,3.55
2023-05-18T08:09:57.913Z,4.38
2023-05-18T08:12:24.669Z,4.13
2023-05-18T08:14:51.275Z,4.43
2023-05-18T08:17:19.571Z,4.53
2023-05-18T08:19:47.433Z,4.57
2023-05-18T08:22:14.552Z,4.10
2023-05-18T08:24:41.217Z,6.97
2023-05-18T08:27:09.903Z,5.88
2023-05-18T08:29:36.266Z,4.75
2023-05-18T08:32:02.772Z,3.30
2023-05-18T08:34:30.130Z,2.03
2023-05-18T08:36:56.623Z,1.90
2023-05-18T08:39:23.031Z,3.78
2023-05-18T08:41:58.535Z,3.60
2023-05-18T08:44:34.082Z,3.20
2023-05-18T08:47:00.649Z,3.55
2023-05-18T08:49:27.343Z,3.78
2023-05-18T08:51:58.339Z,3.38
2023-05-18T08:54:24.883Z,3.28
2023-05-18T08:56:52.639Z,4.80
2023-05-18T08:59:22.960Z,4.18
2023-05-18T09:01:49.324Z,6.38
2023-05-18T09:04:16.309Z,6.45
2023-05-18T09:06:43.059Z,5.07
2023-05-18T09:09:09.746Z,4.40
2023-05-18T09:11:36.362Z,4.35
2023-05-18T09:14:02.701Z,5.00
2023-05-18T09:16:29.251Z,4.22
2023-05-18T09:18:55.835Z,5.07
2023-05-18T09:21:22.369Z,4.53
2023-05-18T09:23:48.815Z,6.13
2023-05-18T09:26:15.424Z,3.85
2023-05-18T09:28:43.340Z,6.55
2023-05-18T09:31:12.674Z,6.53
2023-05-18T09:33:40.394Z,7.40
2023-05-18T09:36:07.442Z,6.15
2023-05-18T09:38:45.724Z,7.35
2023-05-18T09:41:17.259Z,6.80
2023-05-18T09:43:44.397Z,10.13
2023-05-18T09:46:11.806Z,5.85
2023-05-18T09:48:41.799Z,5.43
2023-05-18T09:51:10.224Z,5.28
2023-05-18T09:53:39.874Z,5.80
2023-05-18T09:56:09.488Z,5.80
2023-05-18T09:58:36.421Z,4.47
2023-05-18T10:01:03.187Z,5.00
2023-05-18T10:03:40.503Z,9.32
2023-05-18T10:06:12.802Z,8.02
2023-05-18T10:08:39.416Z,9.38
2023-05-18T10:11:06.326Z,5.65
2023-05-18T10:13:33.158Z,7.22
2023-05-18T10:16:01.247Z,5.57
2023-05-18T10:18:28.321Z,4.95
2023-05-18T10:21:00.198Z,4.72
2023-05-18T10:23:27.651Z,5.20
2023-05-18T10:25:54.288Z,5.72
2023-05-18T10:28:26.072Z,5.35
2023-05-18T10:30:54.449Z,10.02
2023-05-18T10:33:29.048Z,8.82
2023-05-18T10:38:26.161Z,6.68
2023-05-18T10:40:53.309Z,7.90
2023-05-18T10:43:22.582Z,8.77
2023-05-18T10:45:54.116Z,5.40
2023-05-18T10:48:21.093Z,7.82
2023-05-18T10:50:52.336Z,6.60
2023-05-18T10:53:19.778Z,2.90
2023-05-18T10:55:47.276Z,3.03
2023-05-18T10:58:15.809Z,3.08
2023-05-18T11:00:44.126Z,2.67
2023-05-18T11:03:14.257Z,2.60
2023-05-18T11:05:43.732Z,2.92
2023-05-18T11:08:10.271Z,2.80
2023-05-18T11:10:43.675Z,3.08
2023-05-18T11:13:13.487Z,3.38
2023-05-18T11:15:59.992Z,4.20
2023-05-18T11:18:36.681Z,2.85
2023-05-18T11:21:03.348Z,3.17
2023-05-18T11:23:32.616Z,3.58
2023-05-18T11:26:03.076Z,3.03
2023-05-18T11:28:29.430Z,2.50
2023-05-18T11:30:55.842Z,10.90
2023-05-18T11:33:24.279Z,8.88
2023-05-18T11:36:09.166Z,7.15
2023-05-18T11:39:04.980Z,18.27
2023-05-18T11:41:32.476Z,11.40
2023-05-18T11:44:03.343Z,6.28
2023-05-18T11:46:29.693Z,7.97
2023-05-18T11:48:56.086Z,16.63
2023-05-18T11:51:25.023Z,14.27
2023-05-18T11:53:53.455Z,9.75
2023-05-18T11:56:19.786Z,13.07
2023-05-18T11:58:49.267Z,8.07
2023-05-18T12:01:15.694Z,6.40
2023-05-18T12:03:42.134Z,4.15
2023-05-18T12:06:08.552Z,9.80
2023-05-18T12:08:35.889Z,7.18
2023-05-18T12:11:03.121Z,6.93
2023-05-18T12:13:30.348Z,4.78
2023-05-18T12:15:58.963Z,3.67
2023-05-18T12:18:28.068Z,4.53
2023-05-18T12:20:54.399Z,3.25
2023-05-18T12:23:20.734Z,4.50
2023-05-18T12:25:48.743Z,5.10
2023-05-18T12:28:17.110Z,4.35
2023-05-18T12:30:44.028Z,4.65
2023-05-18T12:33:12.381Z,4.05
2023-05-18T12:35:40.218Z,5.05
2023-05-18T12:38:07.465Z,3.78
2023-05-18T12:40:44.250Z,3.90
2023-05-18T12:43:10.881Z,4.72
2023-05-18T12:45:37.309Z,4.32
2023-05-18T12:48:04.481Z,5.15
2023-05-18T12:50:30.928Z,4.82
2023-05-18T12:52:57.364Z,6.05
2023-05-18T12:55:25.313Z,4.10
2023-05-18T12:57:58.857Z,5.10
2023-05-18T13:00:25.210Z,3.72
2023-05-18T13:02:51.677Z,5.10
2023-05-18T13:05:23.255Z,5.63
2023-05-18T13:07:50.203Z,4.35
2023-05-18T13:10:17.309Z,3.67
2023-05-18T13:12:45.245Z,4.35
2023-05-18T13:15:12.647Z,5.20
2023-05-18T13:17:39.122Z,4.68
2023-05-18T13:20:15.412Z,4.25
2023-05-18T13:22:42.984Z,4.63
2023-05-18T13:25:09.453Z,4.40
2023-05-18T13:27:36.091Z,4.10
2023-05-18T13:30:02.436Z,4.40
2023-05-18T13:32:28.831Z,3.88
2023-05-18T13:34:55.194Z,4.45
2023-05-18T13:37:22.124Z,6.93
2023-05-18T13:39:48.647Z,9.88
2023-05-18T13:42:15.071Z,2.63
2023-05-18T13:44:41.665Z,13.85
2023-05-18T13:47:08.016Z,16.35
2023-05-18T13:49:34.331Z,8.88
2023-05-18T13:52:00.738Z,21.15
2023-05-18T13:54:27.069Z,16.25
2023-05-18T13:56:54.466Z,15.38
2023-05-18T13:59:21.990Z,17.10
2023-05-18T14:01:49.556Z,9.32
2023-05-18T14:04:15.990Z,16.55
2023-05-18T14:06:42.366Z,13.77
2023-05-18T14:09:08.720Z,17.48
2023-05-18T14:11:36.831Z,10.38
2023-05-18T14:14:03.167Z,10.07
2023-05-18T14:16:29.946Z,8.40
2023-05-18T14:18:56.358Z,12.90
2023-05-18T14:21:22.733Z,15.35
2023-05-18T14:23:49.151Z,15.50
2023-05-18T14:26:15.549Z,15.95
2023-05-18T14:28:41.913Z,8.18
2023-05-18T14:31:08.306Z,19.25
2023-05-18T14:33:34.680Z,14.65
2023-05-18T14:36:01.809Z,13.43
2023-05-18T14:38:28.167Z,14.52
2023-05-18T14:40:54.556Z,16.60
2023-05-18T14:43:21.243Z,11.35
2023-05-18T14:45:56.586Z,17.55
2023-05-18T14:48:33.526Z,18.15
2023-05-18T14:50:59.910Z,16.93
2023-05-18T14:53:26.487Z,20.65
2023-05-18T14:55:52.857Z,15.98
2023-05-18T14:58:19.210Z,19.05
2023-05-18T15:00:45.965Z,17.23
2023-05-18T15:03:12.504Z,15.23
2023-05-18T15:05:39.043Z,16.05
2023-05-18T15:08:05.593Z,14.77
2023-05-18T15:10:32.171Z,15.68
2023-05-18T15:12:58.738Z,12.20
2023-05-18T15:15:26.623Z,11.57
2023-05-18T15:17:53.409Z,20.33
2023-05-18T15:20:19.856Z,16.50
2023-05-18T15:22:46.206Z,17.00
2023-05-18T15:25:12.572Z,15.32
2023-05-18T15:27:38.912Z,17.48
2023-05-18T15:30:11.526Z,11.30
2023-05-18T15:32:42.520Z,18.45
2023-05-18T15:35:09.190Z,17.25
2023-05-18T15:37:35.561Z,17.73
2023-05-18T15:40:02.113Z,17.55
2023-05-18T15:42:28.549Z,18.52
2023-05-18T15:44:54.869Z,16.70
2023-05-18T15:47:21.319Z,10.63
2023-05-18T15:49:47.661Z,10.25
2023-05-18T15:52:14.005Z,6.47
2023-05-18T15:54:40.462Z,6.82
2023-05-18T15:57:07.516Z,6.57
2023-05-18T15:59:33.868Z,7.20
2023-05-18T16:02:00.297Z,7.00
2023-05-18T16:04:26.630Z,10.70
2023-05-18T16:06:52.967Z,14.70
2023-05-18T16:09:19.298Z,5.90
2023-05-18T16:11:45.689Z,6.43
2023-05-18T16:14:12.044Z,6.20
2023-05-18T16:16:38.434Z,7.10
2023-05-18T16:19:07.093Z,5.10
2023-05-18T16:21:33.531Z,7.18
2023-05-18T16:24:00.173Z,6.32
2023-05-18T16:26:26.895Z,8.02
2023-05-18T16:28:53.239Z,6.82
2023-05-18T16:31:19.771Z,5.97
2023-05-18T16:33:46.162Z,6.72
2023-05-18T16:36:12.540Z,5.65
2023-05-18T16:38:39.236Z,6.47
2023-05-18T16:41:05.899Z,7.00
2023-05-18T16:43:32.431Z,6.22
2023-05-18T16:45:58.875Z,5.25
2023-05-18T16:48:25.685Z,9.60
2023-05-18T16:50:52.102Z,5.10
2023-05-18T16:53:18.445Z,6.57
2023-05-18T16:55:45.028Z,2.30
2023-05-18T16:58:11.399Z,2.83
2023-05-18T17:00:37.757Z,2.30
2023-05-18T17:03:04.233Z,2.35
2023-05-18T17:05:30.640Z,2.88
2023-05-18T17:07:56.968Z,2.53
2023-05-18T17:10:23.330Z,2.25
2023-05-18T17:12:49.688Z,2.58
2023-05-18T17:15:16.334Z,2.80
2023-05-18T17:17:43.305Z,2.38
2023-05-18T17:20:13.261Z,2.65
2023-05-18T17:22:39.652Z,2.85
2023-05-18T17:25:06.254Z,2.88
2023-05-18T17:27:32.624Z,2.55
2023-05-18T17:29:59.034Z,2.67
2023-05-18T17:32:25.454Z,2.95
2023-05-18T17:34:51.891Z,2.45
2023-05-18T17:37:19.335Z,2.83
2023-05-18T17:39:45.734Z,2.80
2023-05-18T17:42:12.088Z,2.60
2023-05-18T17:44:38.446Z,2.88
2023-05-18T17:47:05.038Z,2.53
2023-05-18T17:49:32.527Z,2.92
2023-05-18T17:51:58.946Z,1.70
2023-05-18T17:54:26.051Z,3.42
2023-05-18T17:56:52.569Z,3.00
2023-05-18T17:59:18.989Z,3.55
2023-05-18T18:01:45.430Z,3.85
2023-05-18T18:04:11.969Z,3.63
2023-05-18T18:06:38.490Z,3.65
2023-05-18T18:09:05.046Z,4.20
2023-05-18T18:11:31.839Z,3.75
2023-05-18T18:13:58.478Z,3.55
2023-05-18T18:16:24.890Z,3.67
2023-05-18T18:18:52.357Z,3.83
2023-05-18T18:21:18.818Z,4.35
2023-05-18T18:23:45.280Z,3.40
2023-05-18T18:26:11.657Z,5.00
2023-05-18T18:28:38.136Z,3.63
2023-05-18T18:31:04.666Z,3.53
2023-05-18T18:33:32.541Z,4.45
2023-05-18T18:35:59.037Z,4.22
2023-05-18T18:38:28.924Z,4.00
2023-05-18T18:41:01.053Z,4.65
2023-05-18T18:43:28.140Z,3.45
2023-05-18T18:45:55.852Z,4.85
2023-05-18T18:48:22.635Z,3.65
2023-05-18T18:50:49.440Z,4.15
2023-05-18T18:53:15.818Z,2.92
2023-05-18T18:55:42.145Z,3.47
2023-05-18T18:58:08.548Z,4.03
2023-05-18T19:00:34.942Z,3.40
2023-05-18T19:03:01.314Z,3.92
2023-05-18T19:05:28.360Z,3.67
2023-05-18T19:07:55.908Z,3.60
2023-05-18T19:10:25.586Z,3.15
2023-05-18T19:12:52.008Z,4.13
2023-05-18T19:15:18.712Z,3.67
2023-05-18T19:17:51.972Z,2.85
2023-05-18T19:20:18.655Z,2.95
2023-05-18T19:22:45.086Z,3.97
2023-05-18T19:25:11.517Z,3.17
2023-05-18T19:27:37.933Z,3.50
2023-05-18T19:30:05.370Z,3.10
2023-05-18T19:32:31.966Z,3.85
2023-05-18T19:34:58.465Z,5.28
2023-05-18T19:37:24.856Z,9.80
2023-05-18T19:39:51.186Z,4.78
2023-05-18T19:42:17.604Z,3.67
2023-05-18T19:44:43.940Z,3.78
2023-05-18T19:47:11.124Z,3.58
2023-05-18T19:49:37.507Z,3.70
2023-05-18T19:52:08.218Z,3.60
2023-05-18T19:54:38.415Z,3.50
2023-05-18T19:57:05.020Z,2.00
2023-05-18T19:59:31.427Z,2.70
2023-05-18T20:01:57.899Z,2.60
2023-05-18T20:04:24.955Z,2.47
2023-05-18T20:06:51.933Z,2.55
2023-05-18T20:09:18.361Z,2.30
2023-05-18T20:11:44.924Z,2.33
2023-05-18T20:14:11.314Z,2.30
2023-05-18T20:16:39.743Z,2.38
2023-05-18T20:19:06.913Z,2.33
2023-05-18T20:21:33.993Z,2.60
2023-05-18T20:24:00.822Z,3.25
2023-05-18T20:26:28.878Z,2.58
2023-05-18T20:28:56.899Z,2.08
2023-05-18T20:31:23.348Z,2.20
2023-05-18T20:33:49.820Z,3.55
2023-05-18T20:36:16.196Z,4.10
2023-05-18T20:38:44.170Z,3.55
2023-05-18T20:41:10.624Z,3.92
2023-05-18T20:43:40.128Z,5.60
2023-05-18T20:46:06.849Z,4.88
2023-05-18T20:48:33.359Z,4.57
2023-05-18T20:50:59.721Z,5.53
2023-05-18T20:53:30.386Z,5.22
2023-05-18T20:56:01.092Z,5.00
2023-05-18T20:58:27.479Z,4.30
2023-05-18T21:00:56.751Z,4.07
2023-05-18T21:03:23.195Z,4.35
2023-05-18T21:05:51.667Z,4.88
2023-05-18T21:08:18.029Z,5.70
2023-05-18T21:10:44.370Z,5.07
2023-05-18T21:13:10.819Z,4.95
2023-05-18T21:15:37.470Z,4.75
2023-05-18T21:18:03.989Z,4.90
2023-05-18T21:20:30.594Z,4.57
2023-05-18T21:22:57.196Z,5.18
2023-05-18T21:25:24.037Z,4.72
2023-05-18T21:27:50.405Z,4.25
2023-05-18T21:30:17.031Z,4.97
2023-05-18T21:32:44.447Z,4.68
2023-05-18T21:35:11.063Z,4.03
2023-05-18T21:37:37.425Z,4.40
2023-05-18T21:40:03.941Z,4.88
2023-05-18T21:42:30.547Z,4.90
2023-05-18T21:44:56.891Z,5.53
2023-05-18T21:47:23.608Z,4.88
2023-05-18T21:49:50.027Z,5.07
2023-05-18T21:52:16.396Z,5.63
2023-05-18T21:54:42.787Z,4.80
2023-05-18T21:57:09.126Z,4.95
2023-05-18T21:59:35.563Z,5.18
2023-05-18T22:02:02.070Z,4.45
2023-05-18T22:04:28.466Z,4.53
2023-05-18T22:06:54.998Z,5.15
2023-05-18T22:09:21.410Z,5.10
2023-05-18T22:11:47.750Z,4.85
2023-05-18T22:14:15.617Z,4.28
2023-05-18T22:16:43.401Z,4.30
2023-05-18T22:19:09.810Z,5.18
2023-05-18T22:21:36.288Z,5.28
2023-05-18T22:24:02.649Z,4.97
2023-05-18T22:26:29.093Z,6.63
2023-05-18T22:28:55.524Z,5.85
2023-05-18T22:31:21.938Z,5.18
2023-05-18T22:33:48.277Z,5.70
2023-05-18T22:36:14.759Z,4.75
2023-05-18T22:38:43.748Z,5.38
2023-05-18T22:41:10.159Z,4.97
2023-05-18T22:43:37.037Z,5.22
2023-05-18T22:46:03.381Z,5.20
2023-05-18T22:48:31.883Z,5.00
2023-05-18T22:51:00.745Z,5.30
2023-05-18T22:53:27.534Z,4.78
2023-05-18T22:55:54.427Z,5.22
2023-05-18T22:58:20.812Z,5.30
2023-05-18T23:00:47.166Z,5.50
2023-05-18T23:03:13.573Z,5.05
2023-05-18T23:05:43.404Z,6.03
2023-05-18T23:08:10.255Z,4.70
2023-05-18T23:10:36.682Z,4.20
2023-05-18T23:13:03.104Z,4.63
2023-05-18T23:15:29.443Z,5.03
2023-05-18T23:17:55.848Z,4.63
2023-05-18T23:20:28.194Z,4.35
2023-05-18T23:22:54.538Z,4.70
2023-05-18T23:25:21.191Z,4.20
2023-05-18T23:27:47.599Z,5.22
2023-05-18T23:30:13.960Z,4.78
2023-05-18T23:32:40.536Z,4.53
2023-05-18T23:35:07.445Z,4.25
2023-05-18T23:37:35.029Z,5.18
2023-05-18T23:40:02.387Z,4.40
2023-05-18T23:42:28.912Z,3.97
2023-05-18T23:44:55.421Z,5.03
2023-05-18T23:47:22.047Z,3.92
2023-05-18T23:49:48.576Z,4.10
2023-05-18T23:52:16.064Z,4.75
2023-05-18T23:54:43.976Z,4.40
2023-05-18T23:57:10.800Z,4.10
2023-05-18T23:59:38.045Z,4.15
